Aérodrome :
LOGIN :

S'inscrire | Disclaimer

   EN    FR    IT 

 










Légende :    VFR   VFR Marginal   IFR   IFR Intensif   IFR Très Intensif
Visi : 
Plafond : 
>= 8 km
>= 3000ft
5 à 8 km
1000 à 3000 ft
1500m à 5 km
500 à 1000 ft
800 à 1500m
200 à 500 ft
< 800m
< 200 ft
Symboles :   Orages  Brouillard  Fortes neiges  Fortes précipitations  Vent > 20 kt
SIGMETs :   Divers  Orages  Givrage  Turbulence  Onde Orograph.  Cendres Volcan.







- Altitude de l'aérodrome : 459 ft
- Code IATA : CER
- Voir les cartes d'approche


LFRC - Cherbourg / Maupertus

DERNIER METAR :
  • 210900Z AUTO VRB03KT 9999 BKN013 19/14 Q1014 BECMG SCT035

METARs EXPIRÉS :
  • 210830Z AUTO VRB02KT 9999 BKN006 BKN011 18/15 Q1014 BECMG SCT035
  • 210800Z AUTO 30003KT 260V330 9999 BKN006 BKN060 BKN100 17/15 Q1014 BECMG SCT040
  • 210730Z AUTO 30005KT 270V330 9000 OVC005 16/15 Q1014 BECMG SCT040
  • 210700Z AUTO 31005KT 280V340 9000 OVC004 16/15 Q1014 TEMPO 4000 BR BECMG SCT040
  • 210630Z AUTO 30005KT 280V350 8000 OVC003 15/15 Q1014 TEMPO 4000 BR BECMG SCT040

TAF AMD TAF LFRC
Valide du 21 à 09h jusqu'au 21 à 18h UTC


210910Z 2109/2118 35008KT 9999 SCT035
TEMPO 2109/2111 BKN005
PROB30
TEMPO 2112/2115 4000 -SHRA
Pas de NOTAMs connus pour ce terrain.



MET'MAP, la Météo Aéronautique d'un coup d'oeil ! - Copyright ORBIFLY Décembre 2007 - Disclaimer

ORBIFLY MET'MAP TEAM :

Programmation & Développement : Alexandra Zaïnal
Conception & Développement : Baudouin d'Aumeries
Co-Programmation & Développement : Marc-Olivier Méhu
Soutien technique & logistique : Manuel Goepfert

Contact : metmap@orbifly.com




SOURCES & CREDITS :

   NOAA